Time;durP1;ratioP1;P1;durP2;ratioP2;P2;SDS_P1;SDS_P2;PMS_P1;PMS_P2;Temp;Humidity;BMP_temperature;BMP_pressure;BME280_temperature;BME280_humidity;BME280_pressure;Samples;Min_cycle;Max_cycle;Signal;HPM_P1;HPM_P2
2021/05/26 00:01:40;;;;;;;11.35;10.25;;;10.00;99.90;;;;;;5069961;28;20217;-79
2021/05/26 00:04:13;;;;;;;11.70;10.75;;;9.80;99.90;;;;;;5064933;28;20191;-79
2021/05/26 00:06:40;;;;;;;14.32;11.15;;;9.90;99.90;;;;;;5059107;28;20215;-79
2021/05/26 00:09:26;;;;;;;10.75;9.95;;;9.90;99.90;;;;;;5057687;28;20288;-78
2021/05/26 00:11:53;;;;;;;10.10;9.07;;;9.90;99.90;;;;;;5055179;28;20314;-78
2021/05/26 00:14:28;;;;;;;10.52;9.52;;;9.90;99.90;;;;;;5055935;28;20199;-78
2021/05/26 00:16:55;;;;;;;11.95;10.70;;;10.00;99.90;;;;;;5055672;28;20631;-78
2021/05/26 00:19:22;;;;;;;12.23;11.10;;;10.00;99.90;;;;;;5054510;28;20286;-78
2021/05/26 00:21:48;;;;;;;11.93;10.93;;;10.00;99.90;;;;;;5054356;28;20604;-79
2021/05/26 00:24:15;;;;;;;11.38;10.38;;;10.00;99.90;;;;;;5064449;28;20206;-78
2021/05/26 00:26:43;;;;;;;11.93;10.93;;;10.00;99.90;;;;;;5075023;28;20202;-78
2021/05/26 00:29:10;;;;;;;12.57;11.48;;;10.00;99.90;;;;;;5068391;28;20195;-78
2021/05/26 00:31:38;;;;;;;12.05;11.05;;;10.00;99.90;;;;;;5059032;28;20226;-78
2021/05/26 00:34:04;;;;;;;12.65;10.15;;;10.00;99.90;;;;;;5056618;28;20223;-78
2021/05/26 00:36:31;;;;;;;11.68;10.65;;;10.00;99.90;;;;;;5058715;28;20207;-78
2021/05/26 00:38:58;;;;;;;12.13;11.07;;;10.00;99.90;;;;;;5057335;28;20236;-78
2021/05/26 00:41:28;;;;;;;11.32;10.43;;;10.00;99.90;;;;;;5066249;28;20216;-78
2021/05/26 00:43:55;;;;;;;12.13;10.95;;;10.00;99.90;;;;;;5072743;28;20271;-78
2021/05/26 00:46:21;;;;;;;12.10;11.10;;;10.20;99.90;;;;;;5074115;28;20635;-78
2021/05/26 00:48:49;;;;;;;10.95;10.00;;;10.10;99.90;;;;;;5064080;28;20203;-78
2021/05/26 00:51:16;;;;;;;11.95;10.70;;;10.10;99.90;;;;;;5054374;28;20225;-78
2021/05/26 00:53:43;;;;;;;10.00;9.10;;;10.20;99.90;;;;;;5056669;28;20211;-78
2021/05/26 00:56:12;;;;;;;10.93;9.82;;;10.20;99.90;;;;;;5056596;28;20286;-78
2021/05/26 00:58:40;;;;;;;12.15;9.07;;;10.10;99.90;;;;;;5055701;28;20196;-77
2021/05/26 01:01:22;;;;;;;10.88;9.90;;;10.10;99.90;;;;;;5092445;28;20606;-77
2021/05/26 01:04:02;;;;;;;10.13;8.90;;;10.10;99.90;;;;;;5090214;28;20193;-78
2021/05/26 01:06:30;;;;;;;10.20;9.30;;;10.10;99.90;;;;;;5094411;28;20212;-78
2021/05/26 01:08:57;;;;;;;10.27;8.10;;;10.10;99.90;;;;;;5090947;28;20194;-77
2021/05/26 01:11:41;;;;;;;10.55;8.82;;;10.00;99.90;;;;;;5017784;28;20219;-77
2021/05/26 01:14:09;;;;;;;9.52;8.57;;;10.10;99.90;;;;;;5125100;22;20612;-85
2021/05/26 01:16:37;;;;;;;9.18;8.32;;;10.10;99.90;;;;;;5076218;28;20202;-85
2021/05/26 01:19:04;;;;;;;10.13;8.93;;;10.10;99.90;;;;;;5077653;28;20255;-84
2021/05/26 01:21:32;;;;;;;9.65;8.75;;;10.00;99.90;;;;;;5061176;28;20202;-85
2021/05/26 01:23:59;;;;;;;8.75;7.95;;;10.00;99.90;;;;;;5044447;28;20226;-85
2021/05/26 01:26:32;;;;;;;9.65;8.93;;;10.00;99.90;;;;;;5064354;28;20202;-85
2021/05/26 01:29:00;;;;;;;9.40;8.32;;;10.00;99.90;;;;;;5074347;28;20206;-85
2021/05/26 01:31:28;;;;;;;8.10;7.38;;;10.00;99.90;;;;;;5077110;28;20202;-85
2021/05/26 01:34:03;;;;;;;8.45;7.85;;;10.00;99.90;;;;;;5060600;28;20239;-84
2021/05/26 01:36:42;;;;;;;9.63;8.73;;;10.00;99.90;;;;;;5056305;28;20206;-85
2021/05/26 01:39:11;;;;;;;8.85;8.10;;;9.90;99.90;;;;;;5054198;28;20204;-86
2021/05/26 01:41:38;;;;;;;9.38;8.60;;;10.00;99.90;;;;;;5055726;28;20191;-85
2021/05/26 01:44:05;;;;;;;10.05;7.85;;;10.00;99.90;;;;;;5056440;28;20222;-85
2021/05/26 01:46:33;;;;;;;8.27;7.45;;;10.00;99.90;;;;;;5056593;28;20672;-85
2021/05/26 01:49:00;;;;;;;9.52;8.60;;;10.00;99.90;;;;;;5042376;28;20192;-84
2021/05/26 01:51:26;;;;;;;7.75;7.13;;;9.90;99.90;;;;;;5057641;28;20719;-84
2021/05/26 01:53:56;;;;;;;8.98;8.18;;;9.90;99.90;;;;;;5072103;28;20190;-85
2021/05/26 01:56:26;;;;;;;9.50;8.55;;;9.90;99.90;;;;;;5044305;28;20674;-85
2021/05/26 01:59:13;;;;;;;10.63;9.63;;;9.90;99.90;;;;;;5058905;28;20206;-85
2021/05/26 02:01:44;;;;;;;11.73;8.57;;;9.90;99.90;;;;;;5043530;28;20187;-85
2021/05/26 02:04:11;;;;;;;11.05;10.25;;;10.10;99.90;;;;;;5048428;28;20249;-85
2021/05/26 02:06:46;;;;;;;11.00;10.10;;;10.00;99.90;;;;;;5058970;28;20196;-82
2021/05/26 02:09:13;;;;;;;10.82;9.90;;;10.00;99.90;;;;;;5071100;28;20218;-85
2021/05/26 02:14:27;;;;;;;11.10;10.30;;;10.00;99.90;;;;;;5048618;28;20308;-85
2021/05/26 02:16:57;;;;;;;10.20;9.45;;;9.90;99.90;;;;;;5048195;28;20206;-85
2021/05/26 02:19:26;;;;;;;10.07;9.27;;;10.10;99.90;;;;;;5046100;28;20269;-85
2021/05/26 02:21:54;;;;;;;11.10;10.00;;;10.00;99.90;;;;;;5046018;28;20282;-85
2021/05/26 02:24:21;;;;;;;10.20;9.30;;;9.90;99.90;;;;;;5046346;28;20689;-85
2021/05/26 02:26:49;;;;;;;9.65;8.77;;;9.90;99.90;;;;;;5065213;28;20210;-84
2021/05/26 02:29:16;;;;;;;9.98;9.07;;;9.90;99.90;;;;;;5062453;28;20209;-84
2021/05/26 02:31:43;;;;;;;9.70;8.90;;;9.80;99.90;;;;;;5063226;28;20215;-84
2021/05/26 02:34:09;;;;;;;11.50;10.25;;;9.70;99.90;;;;;;5061889;28;20219;-86
2021/05/26 02:36:38;;;;;;;12.95;11.68;;;9.70;99.90;;;;;;5060719;28;20666;-84
2021/05/26 02:39:05;;;;;;;13.38;11.80;;;9.80;99.90;;;;;;5042176;28;20200;-86
2021/05/26 02:41:32;;;;;;;13.23;12.13;;;9.90;99.90;;;;;;5038387;28;20317;-86
2021/05/26 02:44:00;;;;;;;12.15;11.05;;;10.00;99.90;;;;;;5042624;28;20219;-86
2021/05/26 02:46:28;;;;;;;13.60;12.60;;;10.10;99.90;;;;;;5030845;28;20270;-85
2021/05/26 02:48:54;;;;;;;16.30;14.80;;;10.10;99.90;;;;;;5077484;28;20183;-85
2021/05/26 02:51:22;;;;;;;16.50;15.10;;;10.10;99.90;;;;;;5075412;28;20403;-86
2021/05/26 02:53:52;;;;;;;17.90;16.08;;;10.00;99.90;;;;;;5062854;28;20229;-85
2021/05/26 02:56:19;;;;;;;19.08;17.17;;;10.00;99.90;;;;;;5063354;28;20199;-84
2021/05/26 02:59:07;;;;;;;20.75;18.70;;;10.10;99.90;;;;;;5061274;28;20199;-83
2021/05/26 03:01:54;;;;;;;21.15;19.15;;;9.80;99.90;;;;;;5057874;28;20586;-82
2021/05/26 03:04:29;;;;;;;24.20;21.92;;;9.70;99.90;;;;;;5047804;28;20236;-83
2021/05/26 03:06:56;;;;;;;24.52;21.75;;;9.70;99.90;;;;;;5047887;28;20207;-83
2021/05/26 03:09:24;;;;;;;25.58;23.08;;;9.70;99.90;;;;;;5066203;28;20195;-83
2021/05/26 03:11:54;;;;;;;23.35;21.17;;;9.70;99.90;;;;;;5054088;28;20263;-83
2021/05/26 03:14:29;;;;;;;21.50;19.27;;;9.80;99.90;;;;;;5069416;28;20295;-83
2021/05/26 03:17:03;;;;;;;20.63;18.83;;;9.80;99.90;;;;;;5068595;28;20258;-85
2021/05/26 03:19:31;;;;;;;20.30;18.23;;;9.80;99.90;;;;;;5053057;28;20570;-83
2021/05/26 03:22:26;;;;;;;20.85;18.25;;;9.90;99.90;;;;;;5047255;28;20210;-83
2021/05/26 03:25:14;;;;;;;29.33;18.92;;;9.90;99.90;;;;;;5066070;28;20226;-84
2021/05/26 03:27:42;;;;;;;20.90;18.77;;;10.10;99.90;;;;;;5054595;28;20213;-84
2021/05/26 03:30:12;;;;;;;21.20;18.92;;;10.10;99.90;;;;;;5069108;28;20191;-84
2021/05/26 03:32:40;;;;;;;21.88;19.70;;;10.30;99.90;;;;;;5069464;28;20203;-84
2021/05/26 03:35:09;;;;;;;20.60;18.77;;;10.20;99.90;;;;;;5064761;28;20226;-84
2021/05/26 03:37:36;;;;;;;18.08;16.55;;;10.10;99.90;;;;;;5066879;28;20265;-84
2021/05/26 03:40:04;;;;;;;20.55;18.65;;;10.10;99.90;;;;;;5048980;28;20704;-85
2021/05/26 03:42:31;;;;;;;22.38;20.27;;;10.30;99.90;;;;;;5064626;28;20188;-84
2021/05/26 03:44:59;;;;;;;18.30;16.70;;;10.20;99.90;;;;;;5047450;28;20219;-84
2021/05/26 03:47:27;;;;;;;16.13;14.63;;;10.20;99.90;;;;;;5051844;28;20197;-84
2021/05/26 03:49:58;;;;;;;15.98;14.50;;;10.20;99.90;;;;;;5046063;28;20241;-83
2021/05/26 03:52:25;;;;;;;14.60;13.30;;;10.10;99.90;;;;;;5044476;28;20214;-84
2021/05/26 03:54:53;;;;;;;16.67;13.90;;;10.00;99.90;;;;;;5026913;28;20589;-85
2021/05/26 03:57:20;;;;;;;17.50;13.77;;;10.00;99.90;;;;;;5055783;28;20202;-85
2021/05/26 03:59:48;;;;;;;14.00;12.65;;;10.00;99.90;;;;;;5063002;28;20740;-84
2021/05/26 04:02:15;;;;;;;14.07;12.68;;;10.10;99.90;;;;;;5063174;28;20689;-85
2021/05/26 04:04:43;;;;;;;15.73;13.38;;;9.90;99.90;;;;;;5064921;28;20874;-85
2021/05/26 04:07:11;;;;;;;19.75;13.48;;;10.00;99.90;;;;;;5047455;28;20202;-85
2021/05/26 04:09:38;;;;;;;15.15;13.80;;;9.80;99.90;;;;;;5047188;28;20692;-85
2021/05/26 04:12:06;;;;;;;16.40;12.82;;;9.80;99.90;;;;;;5061229;28;20195;-85
2021/05/26 04:14:50;;;;;;;16.42;10.82;;;9.80;99.90;;;;;;5045364;28;20245;-86
2021/05/26 04:17:35;;;;;;;14.07;10.68;;;9.80;99.90;;;;;;5057472;28;20197;-85
2021/05/26 04:20:10;;;;;;;12.05;10.85;;;9.70;99.90;;;;;;5022487;28;20315;-84
2021/05/26 04:22:37;;;;;;;12.15;11.00;;;9.60;99.90;;;;;;5043465;28;20199;-85
2021/05/26 04:25:07;;;;;;;12.00;10.80;;;9.70;99.90;;;;;;5039508;28;20227;-86
2021/05/26 04:27:34;;;;;;;15.05;12.38;;;9.80;99.90;;;;;;5039278;28;20200;-86
2021/05/26 04:30:04;;;;;;;14.77;13.32;;;9.80;99.90;;;;;;5035999;28;20206;-86
2021/05/26 04:32:37;;;;;;;14.70;10.98;;;9.80;99.90;;;;;;5025355;28;20191;-87
2021/05/26 04:35:05;;;;;;;17.27;13.05;;;9.90;99.90;;;;;;5057597;28;20698;-85
2021/05/26 04:37:32;;;;;;;16.73;13.90;;;9.90;99.90;;;;;;5059874;28;20195;-85
2021/05/26 04:39:59;;;;;;;13.75;12.15;;;9.90;99.90;;;;;;5054830;28;20211;-86
2021/05/26 04:42:26;;;;;;;13.73;12.15;;;9.90;99.90;;;;;;5022100;28;20203;-86
2021/05/26 04:44:52;;;;;;;15.52;12.68;;;9.90;99.90;;;;;;5038503;28;20215;-85
2021/05/26 04:47:19;;;;;;;15.07;11.48;;;9.90;99.90;;;;;;5042033;28;20254;-86
2021/05/26 04:49:46;;;;;;;18.25;14.18;;;10.00;99.90;;;;;;5042510;28;20196;-85
2021/05/26 04:52:12;;;;;;;13.40;11.25;;;10.10;99.90;;;;;;5051763;28;20203;-87
2021/05/26 04:54:39;;;;;;;12.93;11.10;;;10.20;99.90;;;;;;5061127;28;20246;-86
2021/05/26 04:57:06;;;;;;;18.90;12.52;;;10.40;99.90;;;;;;5057632;28;20195;-87
2021/05/26 04:59:33;;;;;;;15.65;11.00;;;10.50;99.90;;;;;;5063865;28;20233;-87
2021/05/26 05:02:01;;;;;;;17.50;11.52;;;10.50;99.90;;;;;;5064128;28;20274;-87
2021/05/26 05:04:27;;;;;;;16.85;11.98;;;10.50;99.90;;;;;;5060776;28;20219;-86
2021/05/26 05:06:56;;;;;;;13.80;11.88;;;10.40;99.90;;;;;;5064804;28;20196;-86
2021/05/26 05:09:23;;;;;;;15.32;11.55;;;10.40;99.90;;;;;;5063891;28;20699;-86
2021/05/26 05:11:51;;;;;;;15.88;10.05;;;10.40;99.90;;;;;;5064410;28;20207;-86
2021/05/26 05:14:17;;;;;;;14.07;9.38;;;10.40;99.90;;;;;;5063175;28;20231;-84
2021/05/26 05:16:44;;;;;;;11.43;9.10;;;10.40;99.90;;;;;;5063231;28;20206;-87
2021/05/26 05:19:11;;;;;;;9.60;8.15;;;10.40;99.90;;;;;;5064975;28;20228;-86
2021/05/26 05:21:38;;;;;;;12.73;8.80;;;10.40;99.90;;;;;;5065328;28;20237;-87
2021/05/26 05:24:22;;;;;;;12.77;8.77;;;10.40;99.90;;;;;;5064034;28;20298;-87
2021/05/26 05:26:50;;;;;;;9.88;8.82;;;10.40;99.90;;;;;;5049999;28;20196;-87
2021/05/26 05:29:17;;;;;;;17.58;8.48;;;10.40;99.90;;;;;;5043479;28;20638;-86
2021/05/26 05:31:43;;;;;;;11.88;9.05;;;10.40;99.90;;;;;;5042018;28;20206;-86
2021/05/26 05:34:10;;;;;;;12.73;8.65;;;10.50;99.90;;;;;;5042222;28;20233;-86
2021/05/26 05:36:37;;;;;;;13.27;8.85;;;10.60;99.90;;;;;;5043534;28;20212;-86
2021/05/26 05:39:04;;;;;;;10.55;7.55;;;10.60;99.90;;;;;;5042247;28;20196;-87
2021/05/26 05:41:31;;;;;;;16.30;8.38;;;10.60;99.90;;;;;;5043266;28;20227;-87
2021/05/26 05:43:58;;;;;;;9.65;7.70;;;10.60;99.90;;;;;;5042820;28;20220;-86
2021/05/26 05:46:25;;;;;;;9.85;8.02;;;10.50;99.90;;;;;;5041137;28;20202;-87
2021/05/26 05:48:51;;;;;;;14.32;8.52;;;10.50;99.90;;;;;;5042654;28;20563;-87
2021/05/26 05:51:18;;;;;;;14.18;9.23;;;10.40;99.90;;;;;;5070009;28;20203;-87
2021/05/26 05:53:45;;;;;;;15.52;8.20;;;10.50;99.90;;;;;;5076155;28;20206;-87
2021/05/26 05:56:11;;;;;;;16.27;9.68;;;10.50;99.90;;;;;;5069907;28;20203;-87
2021/05/26 05:58:38;;;;;;;13.40;9.25;;;10.60;99.90;;;;;;5061443;28;20230;-86
2021/05/26 06:01:05;;;;;;;15.35;9.90;;;10.50;99.90;;;;;;5066721;28;20219;-86
2021/05/26 06:03:32;;;;;;;13.25;9.57;;;10.50;99.90;;;;;;5067402;28;20307;-85
2021/05/26 06:05:59;;;;;;;19.83;8.73;;;10.70;99.90;;;;;;5066946;28;20222;-85
2021/05/26 06:08:26;;;;;;;19.35;9.38;;;10.60;99.90;;;;;;5055145;28;20197;-86
2021/05/26 06:10:52;;;;;;;13.85;9.30;;;10.60;99.90;;;;;;5048454;28;20223;-84
2021/05/26 06:13:19;;;;;;;11.98;9.25;;;10.70;99.90;;;;;;5046493;28;20658;-84
2021/05/26 06:15:46;;;;;;;21.88;10.23;;;10.90;99.90;;;;;;5048264;28;20220;-86
2021/05/26 06:18:16;;;;;;;15.70;10.00;;;11.00;99.90;;;;;;5047420;28;20214;-85
2021/05/26 06:20:44;;;;;;;13.57;9.18;;;11.00;99.90;;;;;;5047721;28;20305;-85
2021/05/26 06:23:10;;;;;;;17.58;8.52;;;11.10;99.90;;;;;;5047458;28;20291;-87
2021/05/26 06:25:38;;;;;;;10.88;8.45;;;11.10;99.90;;;;;;5046872;28;20242;-85
2021/05/26 06:28:05;;;;;;;19.85;8.57;;;11.20;99.90;;;;;;5055270;28;20259;-83
2021/05/26 06:30:32;;;;;;;10.23;7.55;;;11.30;99.90;;;;;;5059370;28;20216;-86
2021/05/26 06:33:00;;;;;;;13.40;8.57;;;11.40;99.90;;;;;;5028621;28;20192;-86
2021/05/26 06:35:27;;;;;;;9.65;8.02;;;11.50;99.90;;;;;;5046877;28;20231;-87
2021/05/26 06:37:54;;;;;;;13.18;8.15;;;11.30;99.90;;;;;;5046298;28;20192;-86
2021/05/26 06:40:21;;;;;;;10.13;7.95;;;11.30;99.90;;;;;;5047250;28;20220;-84
2021/05/26 06:42:47;;;;;;;11.68;8.07;;;11.20;99.90;;;;;;5055504;28;20200;-84
2021/05/26 06:45:14;;;;;;;14.32;9.32;;;11.20;99.90;;;;;;5058824;28;20212;-85
2021/05/26 06:47:41;;;;;;;15.13;8.88;;;11.30;99.90;;;;;;5056692;28;20670;-84
2021/05/26 06:50:09;;;;;;;10.88;8.02;;;11.50;99.90;;;;;;5043387;28;20799;-86
2021/05/26 06:52:37;;;;;;;14.52;8.70;;;11.50;99.90;;;;;;5062247;28;20214;-87
2021/05/26 06:55:05;;;;;;;19.40;9.40;;;11.50;99.90;;;;;;5056940;28;20652;-84
2021/05/26 06:57:31;;;;;;;12.35;9.25;;;11.40;99.90;;;;;;5060217;28;20202;-86
2021/05/26 06:59:58;;;;;;;13.15;9.73;;;11.30;99.90;;;;;;5042533;28;20220;-87
2021/05/26 07:02:24;;;;;;;10.68;8.93;;;11.30;99.90;;;;;;5059866;28;20198;-86
2021/05/26 07:04:51;;;;;;;12.55;8.80;;;11.40;99.90;;;;;;5057966;28;20235;-87
2021/05/26 07:07:18;;;;;;;18.13;9.25;;;11.40;99.90;;;;;;5042150;28;20238;-87
2021/05/26 07:09:45;;;;;;;11.25;9.77;;;11.60;99.90;;;;;;5044401;28;20254;-85
2021/05/26 07:12:12;;;;;;;24.60;10.90;;;11.60;99.90;;;;;;5045310;28;20200;-87
2021/05/26 07:14:39;;;;;;;15.23;11.07;;;11.60;99.90;;;;;;5050547;22;20907;-79
2021/05/26 07:17:06;;;;;;;15.18;10.45;;;11.50;99.90;;;;;;5092306;28;20201;-79
2021/05/26 07:19:33;;;;;;;17.35;9.52;;;11.60;99.90;;;;;;5075243;28;20187;-80
2021/05/26 07:21:59;;;;;;;14.77;10.07;;;12.00;99.90;;;;;;5051519;28;20232;-80
2021/05/26 07:24:26;;;;;;;11.35;9.38;;;12.10;99.90;;;;;;5091938;28;20193;-79
2021/05/26 07:26:53;;;;;;;15.65;10.20;;;12.20;99.90;;;;;;5074201;28;20191;-79
2021/05/26 07:29:20;;;;;;;12.02;9.68;;;12.30;99.90;;;;;;5068796;28;20215;-79
2021/05/26 07:31:47;;;;;;;11.65;9.85;;;12.40;99.90;;;;;;5065911;28;20192;-80
2021/05/26 07:34:13;;;;;;;13.82;9.68;;;12.40;99.90;;;;;;5060456;28;20203;-80
2021/05/26 07:36:40;;;;;;;14.23;9.57;;;12.30;99.90;;;;;;5069219;28;20203;-80
2021/05/26 07:39:08;;;;;;;16.67;10.30;;;12.20;99.90;;;;;;5076896;28;20684;-79
2021/05/26 07:41:35;;;;;;;11.48;9.07;;;12.10;99.90;;;;;;5072852;28;20722;-79
2021/05/26 07:44:03;;;;;;;13.57;10.00;;;12.00;99.90;;;;;;5073375;28;20191;-81
2021/05/26 07:46:29;;;;;;;11.75;9.95;;;12.30;99.90;;;;;;5074457;28;20234;-80
2021/05/26 07:48:56;;;;;;;13.57;9.30;;;12.50;99.90;;;;;;5073530;28;20188;-79
2021/05/26 07:51:28;;;;;;;15.68;9.20;;;12.30;99.90;;;;;;5058934;28;20200;-81
2021/05/26 07:53:54;;;;;;;16.15;8.27;;;12.30;99.90;;;;;;5053273;28;20192;-79
2021/05/26 07:56:22;;;;;;;11.10;9.25;;;12.70;99.90;;;;;;5058337;28;20249;-81
2021/05/26 07:58:49;;;;;;;9.52;8.57;;;13.00;99.90;;;;;;5059167;28;20662;-80
2021/05/26 08:01:16;;;;;;;11.88;7.57;;;13.10;99.90;;;;;;5069208;28;20211;-80
2021/05/26 08:03:43;;;;;;;14.20;7.53;;;13.30;99.90;;;;;;5069928;28;20195;-80
2021/05/26 08:06:10;;;;;;;10.18;6.97;;;13.60;99.90;;;;;;5074642;28;20720;-79
2021/05/26 08:08:37;;;;;;;11.88;6.18;;;13.70;99.90;;;;;;5065481;28;20214;-80
2021/05/26 08:11:04;;;;;;;10.52;6.68;;;13.70;99.90;;;;;;5076641;28;20203;-79
2021/05/26 08:13:31;;;;;;;7.38;6.30;;;13.70;99.90;;;;;;5079390;28;20724;-79
2021/05/26 08:15:58;;;;;;;9.05;6.22;;;13.60;99.90;;;;;;5061647;28;20615;-79
2021/05/26 08:18:25;;;;;;;8.40;6.38;;;13.30;99.90;;;;;;5081040;28;20241;-78
2021/05/26 08:20:52;;;;;;;9.95;6.68;;;13.10;99.90;;;;;;5095538;28;20584;-77
2021/05/26 08:23:18;;;;;;;8.80;6.45;;;13.20;99.90;;;;;;5062335;28;20268;-80
2021/05/26 08:25:45;;;;;;;9.15;6.50;;;13.10;99.90;;;;;;5071185;28;20252;-79
2021/05/26 08:28:12;;;;;;;11.90;7.88;;;12.90;99.90;;;;;;5069849;28;20202;-79
2021/05/26 08:30:40;;;;;;;10.38;7.78;;;13.20;99.90;;;;;;5086026;28;20586;-79
2021/05/26 08:33:07;;;;;;;15.48;7.65;;;13.00;99.90;;;;;;5088104;28;20202;-80
2021/05/26 08:35:34;;;;;;;10.40;6.88;;;13.00;99.90;;;;;;5087150;28;20642;-80
2021/05/26 08:38:00;;;;;;;10.02;7.45;;;12.90;99.90;;;;;;5087920;28;20206;-79
2021/05/26 08:40:30;;;;;;;10.75;8.02;;;12.80;99.90;;;;;;5077096;28;20226;-80
2021/05/26 08:42:57;;;;;;;8.27;6.43;;;12.80;99.90;;;;;;5068199;28;20202;-80
2021/05/26 08:45:25;;;;;;;11.40;7.43;;;12.80;99.90;;;;;;5087285;28;20214;-79
2021/05/26 08:47:54;;;;;;;12.75;7.93;;;12.80;99.90;;;;;;5088074;28;20198;-79
2021/05/26 08:50:21;;;;;;;11.70;7.78;;;12.80;99.90;;;;;;5080597;28;20194;-78
2021/05/26 08:52:49;;;;;;;9.52;8.02;;;12.90;99.90;;;;;;5056745;28;20200;-77
2021/05/26 08:55:16;;;;;;;16.00;9.52;;;12.90;99.90;;;;;;5068183;28;20269;-78
2021/05/26 08:57:43;;;;;;;10.48;8.38;;;13.10;99.90;;;;;;5067622;28;20436;-78
2021/05/26 09:00:11;;;;;;;8.85;7.97;;;13.00;99.90;;;;;;5077070;28;20222;-78
2021/05/26 09:02:38;;;;;;;10.25;8.55;;;12.80;99.90;;;;;;5068134;28;20187;-78
2021/05/26 09:05:05;;;;;;;12.43;8.75;;;12.80;99.90;;;;;;5045864;28;20219;-78
2021/05/26 09:07:33;;;;;;;11.55;7.63;;;12.80;99.90;;;;;;5060310;28;20620;-80
2021/05/26 09:10:05;;;;;;;10.18;8.13;;;13.00;99.90;;;;;;5063489;28;20196;-81
2021/05/26 09:12:33;;;;;;;8.30;7.43;;;13.10;99.90;;;;;;5061732;28;20457;-78
2021/05/26 09:15:07;;;;;;;7.65;6.82;;;13.20;99.90;;;;;;5052142;28;20243;-79
2021/05/26 09:17:35;;;;;;;9.30;7.60;;;13.30;99.90;;;;;;5071206;28;20575;-79
2021/05/26 09:20:12;;;;;;;12.82;7.60;;;13.40;99.90;;;;;;5065703;28;20230;-78
2021/05/26 09:22:42;;;;;;;8.57;7.22;;;13.40;99.90;;;;;;5062362;28;20195;-78
2021/05/26 09:25:10;;;;;;;9.68;7.03;;;13.60;99.90;;;;;;5057326;28;20724;-75
2021/05/26 09:27:37;;;;;;;9.10;7.32;;;13.50;99.90;;;;;;5071707;28;20228;-76
2021/05/26 09:30:05;;;;;;;8.20;6.72;;;13.70;99.90;;;;;;5061506;28;20190;-77
2021/05/26 09:32:34;;;;;;;11.52;7.25;;;13.60;99.90;;;;;;5064828;28;20227;-77
2021/05/26 09:35:01;;;;;;;7.30;6.13;;;13.80;99.90;;;;;;5057218;28;20219;-77
2021/05/26 09:37:29;;;;;;;7.25;6.60;;;14.20;99.90;;;;;;5051052;28;20198;-76
2021/05/26 09:39:57;;;;;;;8.65;5.85;;;14.00;99.90;;;;;;5062648;28;20190;-76
2021/05/26 09:42:37;;;;;;;13.40;6.95;;;14.10;99.90;;;;;;5048589;28;20289;-77
2021/05/26 09:45:15;;;;;;;8.50;5.53;;;14.20;99.90;;;;;;5058791;28;20215;-78
2021/05/26 09:47:44;;;;;;;7.30;5.38;;;14.10;99.90;;;;;;5058994;28;20227;-78
2021/05/26 09:50:27;;;;;;;10.98;5.60;;;14.10;99.90;;;;;;5060540;28;20203;-76
2021/05/26 09:52:55;;;;;;;6.30;4.90;;;14.50;99.90;;;;;;5059417;28;20203;-77
2021/05/26 09:55:23;;;;;;;9.00;4.90;;;14.40;99.90;;;;;;5067191;28;20259;-78
2021/05/26 09:57:52;;;;;;;7.15;4.60;;;14.30;99.90;;;;;;5066661;28;20214;-76
2021/05/26 10:00:20;;;;;;;5.32;4.18;;;14.20;99.90;;;;;;5058471;28;20219;-75
2021/05/26 10:02:48;;;;;;;5.50;5.00;;;14.10;99.90;;;;;;5076352;28;20195;-77
2021/05/26 10:05:16;;;;;;;4.18;3.83;;;14.30;99.90;;;;;;5069338;28;20219;-77
2021/05/26 10:08:06;;;;;;;5.15;3.65;;;14.60;99.90;;;;;;5052424;28;20278;-77
2021/05/26 10:10:34;;;;;;;10.15;3.95;;;14.80;99.90;;;;;;5053686;28;20187;-78
2021/05/26 10:13:19;;;;;;;5.72;3.40;;;15.00;99.90;;;;;;5041931;28;20570;-77
2021/05/26 10:15:49;;;;;;;3.85;2.75;;;15.10;99.90;;;;;;5044594;28;20249;-77
2021/05/26 10:18:18;;;;;;;3.90;2.35;;;15.50;99.90;;;;;;5050284;28;20214;-77
2021/05/26 10:20:46;;;;;;;3.65;3.03;;;15.40;99.90;;;;;;5060969;28;20594;-76
2021/05/26 10:23:17;;;;;;;5.25;2.97;;;15.20;99.90;;;;;;5079229;28;20281;-78
2021/05/26 10:25:45;;;;;;;6.63;2.97;;;14.90;99.90;;;;;;5079395;28;20719;-77
2021/05/26 10:28:27;;;;;;;4.57;3.35;;;15.00;99.90;;;;;;5084233;28;20203;-78
2021/05/26 10:30:55;;;;;;;2.63;2.42;;;15.10;99.90;;;;;;5068500;28;20199;-77
2021/05/26 10:33:52;;;;;;;4.53;2.70;;;15.70;99.90;;;;;;5043419;28;20630;-78
2021/05/26 10:36:21;;;;;;;3.38;2.38;;;15.90;99.90;;;;;;5060557;28;20222;-77
2021/05/26 10:38:59;;;;;;;3.85;2.95;;;15.60;99.90;;;;;;5063483;28;20226;-78
2021/05/26 10:41:47;;;;;;;3.38;2.85;;;15.70;99.90;;;;;;5063599;28;20226;-78
2021/05/26 10:44:13;;;;;;;3.42;2.53;;;15.80;99.90;;;;;;5062551;28;20195;-77
2021/05/26 10:46:41;;;;;;;3.55;2.83;;;15.30;99.90;;;;;;5070126;28;20266;-77
2021/05/26 10:49:10;;;;;;;4.00;2.83;;;15.20;99.90;;;;;;5079189;28;20218;-78
2021/05/26 10:52:04;;;;;;;6.28;3.80;;;15.20;99.90;;;;;;5076377;28;20198;-77
2021/05/26 10:54:54;;;;;;;5.05;3.13;;;15.00;99.90;;;;;;5056735;28;20269;-77
2021/05/26 10:57:21;;;;;;;2.47;1.98;;;15.50;99.90;;;;;;5079571;28;20214;-77
2021/05/26 11:00:25;;;;;;;2.15;2.05;;;15.60;99.90;;;;;;5081162;28;20244;-77
2021/05/26 11:03:28;;;;;;;1.80;1.65;;;16.00;99.90;;;;;;5068758;28;20194;-77
2021/05/26 11:05:57;;;;;;;4.45;2.20;;;16.70;99.90;;;;;;5088979;28;20738;-78
2021/05/26 11:08:28;;;;;;;2.20;2.00;;;16.90;99.90;;;;;;5082033;28;20195;-78
2021/05/26 11:10:55;;;;;;;4.32;2.25;;;16.70;99.90;;;;;;5080246;28;20209;-78
2021/05/26 11:13:22;;;;;;;4.88;1.98;;;16.40;99.90;;;;;;5062389;28;20325;-77
2021/05/26 11:15:57;;;;;;;6.90;1.90;;;16.50;99.90;;;;;;5044062;28;20227;-78
2021/05/26 11:18:31;;;;;;;2.15;1.88;;;16.60;99.90;;;;;;5063378;28;20191;-79
2021/05/26 11:21:00;;;;;;;2.70;1.85;;;16.10;99.90;;;;;;5027551;28;20245;-78
2021/05/26 11:23:27;;;;;;;3.65;2.03;;;15.60;99.90;;;;;;5061439;28;20263;-78
2021/05/26 11:25:55;;;;;;;2.45;2.00;;;15.50;99.90;;;;;;5048998;28;20660;-78
2021/05/26 11:28:29;;;;;;;3.47;1.63;;;15.60;99.90;;;;;;5077188;28;20198;-78
2021/05/26 11:31:00;;;;;;;3.10;2.03;;;15.60;99.90;;;;;;5060868;28;20241;-78
2021/05/26 11:33:27;;;;;;;2.28;1.60;;;15.70;99.90;;;;;;5070017;28;20203;-78
2021/05/26 11:35:58;;;;;;;2.97;1.60;;;15.80;99.90;;;;;;5071130;28;20286;-78
2021/05/26 11:38:26;;;;;;;2.80;1.88;;;16.20;99.90;;;;;;5077407;28;20618;-78
2021/05/26 11:40:53;;;;;;;3.55;1.90;;;16.20;99.90;;;;;;5071347;28;20229;-78
2021/05/26 11:43:22;;;;;;;5.18;2.00;;;16.60;99.90;;;;;;5063358;28;20222;-78
2021/05/26 11:46:06;;;;;;;3.13;1.90;;;16.90;99.90;;;;;;5047389;28;20222;-78
2021/05/26 11:48:32;;;;;;;4.47;1.52;;;16.80;99.90;;;;;;5065446;28;20345;-78
2021/05/26 11:51:00;;;;;;;4.55;1.38;;;16.80;99.90;;;;;;5049840;28;20769;-78
2021/05/26 11:53:29;;;;;;;3.72;1.63;;;16.60;99.90;;;;;;5061529;28;20267;-78
2021/05/26 11:56:00;;;;;;;1.73;1.23;;;16.60;99.90;;;;;;5062354;28;20680;-78
2021/05/26 11:58:37;;;;;;;4.05;1.60;;;16.60;99.90;;;;;;5066440;28;20291;-78
2021/05/26 12:01:09;;;;;;;3.92;1.67;;;16.30;99.90;;;;;;5066535;28;20218;-77
2021/05/26 12:03:36;;;;;;;9.40;1.50;;;16.10;99.90;;;;;;5066842;28;20194;-79
2021/05/26 12:06:04;;;;;;;2.67;1.55;;;15.80;99.90;;;;;;5073269;28;20211;-79
2021/05/26 12:08:33;;;;;;;3.85;1.70;;;15.90;99.90;;;;;;5080085;28;20213;-79
2021/05/26 12:11:03;;;;;;;2.25;1.75;;;15.90;99.90;;;;;;5084361;28;20255;-78
2021/05/26 12:13:31;;;;;;;6.25;1.98;;;15.90;99.90;;;;;;5083804;28;20195;-78
2021/05/26 12:16:01;;;;;;;2.33;1.35;;;16.30;99.90;;;;;;5077597;28;20313;-78
2021/05/26 12:18:28;;;;;;;2.17;1.45;;;16.40;99.90;;;;;;5070209;28;20198;-78
2021/05/26 12:20:57;;;;;;;3.67;1.50;;;15.80;99.90;;;;;;5059590;28;20282;-78
2021/05/26 12:23:32;;;;;;;1.75;1.27;;;15.70;99.90;;;;;;5045644;28;20187;-77
2021/05/26 12:25:59;;;;;;;1.63;1.27;;;15.60;99.90;;;;;;5059647;28;20277;-77
2021/05/26 12:28:29;;;;;;;3.65;1.23;;;15.50;99.90;;;;;;5043566;28;20214;-76
2021/05/26 12:30:57;;;;;;;2.08;1.83;;;15.40;99.90;;;;;;5065255;28;20266;-77
2021/05/26 12:33:26;;;;;;;3.80;2.15;;;15.70;99.90;;;;;;5064671;28;20204;-78
2021/05/26 12:36:06;;;;;;;4.57;1.65;;;15.90;99.90;;;;;;5044003;28;20211;-76
2021/05/26 12:38:37;;;;;;;2.90;1.63;;;15.90;99.90;;;;;;5029470;28;20260;-77
2021/05/26 12:41:29;;;;;;;2.65;1.67;;;15.60;99.90;;;;;;5069139;28;20214;-78
2021/05/26 12:43:58;;;;;;;2.10;1.40;;;15.80;99.90;;;;;;5059135;28;20252;-78
2021/05/26 12:46:42;;;;;;;2.63;1.60;;;16.20;99.90;;;;;;5059827;28;20239;-78
2021/05/26 12:49:38;;;;;;;2.80;1.88;;;16.50;99.90;;;;;;5044148;28;20199;-78
2021/05/26 12:52:07;;;;;;;2.35;1.40;;;17.20;99.90;;;;;;5042337;28;20195;-79
2021/05/26 12:54:42;;;;;;;2.25;1.60;;;17.20;99.90;;;;;;5052177;28;20317;-79